createdAt,value
2022-10-19T00:00:26.353Z,1020.16
2022-10-19T00:01:26.331Z,1020.15
2022-10-19T00:02:26.464Z,1020.15
2022-10-19T00:03:26.321Z,1020.14
2022-10-19T00:04:26.338Z,1020.17
2022-10-19T00:05:26.293Z,1020.15
2022-10-19T00:06:26.478Z,1020.18
2022-10-19T00:07:26.276Z,1020.16
2022-10-19T00:08:26.266Z,1020.22
2022-10-19T00:09:26.349Z,1020.20
2022-10-19T00:10:26.237Z,1020.20
2022-10-19T00:11:26.255Z,1020.16
2022-10-19T00:12:26.217Z,1020.21
2022-10-19T00:13:26.206Z,1020.20
2022-10-19T00:14:26.192Z,1020.20
2022-10-19T00:15:26.217Z,1020.15
2022-10-19T00:16:26.211Z,1020.16
2022-10-19T00:17:26.166Z,1020.18
2022-10-19T00:18:26.166Z,1020.15
2022-10-19T00:19:26.137Z,1020.16
2022-10-19T00:20:26.130Z,1020.17
2022-10-19T00:21:26.127Z,1020.11
2022-10-19T00:22:26.139Z,1020.14
2022-10-19T00:23:26.106Z,1020.16
2022-10-19T00:24:26.100Z,1020.19
2022-10-19T00:25:26.083Z,1020.16
2022-10-19T00:26:26.062Z,1020.12
2022-10-19T00:27:26.078Z,1020.15
2022-10-19T00:28:26.084Z,1020.16
2022-10-19T00:29:26.035Z,1020.15
2022-10-19T00:30:26.025Z,1020.13
2022-10-19T00:31:26.026Z,1020.14
2022-10-19T00:32:26.010Z,1020.14
2022-10-19T00:33:25.986Z,1020.23
2022-10-19T00:34:25.974Z,1020.19
2022-10-19T00:35:25.971Z,1020.17
2022-10-19T00:36:25.962Z,1020.14
2022-10-19T00:37:25.963Z,1020.20
2022-10-19T00:38:25.938Z,1020.18
2022-10-19T00:39:25.934Z,1020.22
2022-10-19T00:40:25.918Z,1020.20
2022-10-19T00:41:25.906Z,1020.18
2022-10-19T00:42:25.920Z,1020.21
2022-10-19T00:43:25.902Z,1020.23
2022-10-19T00:44:25.875Z,1020.23
2022-10-19T00:45:25.860Z,1020.26
2022-10-19T00:46:25.847Z,1020.24
2022-10-19T00:47:25.941Z,1020.26
2022-10-19T00:48:25.841Z,1020.22
2022-10-19T00:49:25.814Z,1020.20
2022-10-19T00:50:25.818Z,1020.21
2022-10-19T00:51:25.823Z,1020.18
2022-10-19T00:52:25.790Z,1020.22
2022-10-19T00:53:25.778Z,1020.23
2022-10-19T00:54:25.756Z,1020.21
2022-10-19T00:55:25.754Z,1020.24
2022-10-19T00:56:25.746Z,1020.22
2022-10-19T00:57:25.796Z,1020.25
2022-10-19T00:58:25.720Z,1020.27
2022-10-19T00:59:25.718Z,1020.28
2022-10-19T01:00:25.702Z,1020.32
2022-10-19T01:01:25.735Z,1020.35
2022-10-19T01:02:25.698Z,1020.36
2022-10-19T01:03:25.669Z,1020.32
2022-10-19T01:04:25.651Z,1020.34
2022-10-19T01:05:25.640Z,1020.26
2022-10-19T01:06:25.634Z,1020.22
2022-10-19T01:07:25.688Z,1020.20
2022-10-19T01:08:25.607Z,1020.20
2022-10-19T01:09:25.610Z,1020.15
2022-10-19T01:10:25.596Z,1020.10
2022-10-19T01:11:25.574Z,1020.14
2022-10-19T01:12:25.570Z,1020.13
2022-10-19T01:13:25.622Z,1020.10
2022-10-19T01:14:25.543Z,1020.10
2022-10-19T01:15:25.559Z,1020.11
2022-10-19T01:16:25.537Z,1020.07
2022-10-19T01:17:25.594Z,1020.14
2022-10-19T01:18:25.520Z,1020.15
2022-10-19T01:19:25.489Z,1020.04
2022-10-19T01:20:25.478Z,1020.12
2022-10-19T01:21:25.475Z,1020.09
2022-10-19T01:22:25.461Z,1020.08
2022-10-19T01:23:25.442Z,1020.01
2022-10-19T01:24:25.447Z,1020.00
2022-10-19T01:25:25.439Z,1020.00
2022-10-19T01:26:25.442Z,1019.97
2022-10-19T01:27:25.434Z,1019.99
2022-10-19T01:28:25.421Z,1019.99
2022-10-19T01:29:25.381Z,1019.98
2022-10-19T01:30:25.380Z,1019.99
2022-10-19T01:31:25.387Z,1019.99
2022-10-19T01:32:25.364Z,1019.98
2022-10-19T01:33:25.344Z,1020.00
2022-10-19T01:34:25.336Z,1020.05
2022-10-19T01:35:25.347Z,1020.03
2022-10-19T01:36:25.310Z,1020.05
2022-10-19T01:37:25.374Z,1020.06
2022-10-19T01:38:25.310Z,1020.00
2022-10-19T01:39:25.271Z,1019.92
2022-10-19T01:40:25.258Z,1019.93
2022-10-19T01:41:25.262Z,1019.91
2022-10-19T01:42:25.240Z,1019.93
2022-10-19T01:43:25.228Z,1019.91
2022-10-19T01:44:25.222Z,1019.97
2022-10-19T01:45:25.205Z,1019.95
2022-10-19T01:46:25.202Z,1019.94
2022-10-19T01:47:25.287Z,1019.94
2022-10-19T01:48:25.184Z,1019.94
2022-10-19T01:49:25.338Z,1019.95
2022-10-19T01:50:25.160Z,1019.90
2022-10-19T01:51:25.163Z,1019.92
2022-10-19T01:52:25.136Z,1019.88
2022-10-19T01:53:25.148Z,1019.90
2022-10-19T01:54:25.129Z,1019.88
2022-10-19T01:55:25.105Z,1019.91
2022-10-19T01:56:25.087Z,1019.93
2022-10-19T01:57:25.087Z,1019.92
2022-10-19T01:58:25.080Z,1019.91
2022-10-19T01:59:25.093Z,1019.92
2022-10-19T02:00:25.048Z,1019.87
2022-10-19T02:01:25.036Z,1019.87
2022-10-19T02:02:25.040Z,1019.87
2022-10-19T02:03:25.030Z,1019.87
2022-10-19T02:04:25.253Z,1019.86
2022-10-19T02:05:24.998Z,1019.86
2022-10-19T02:06:24.979Z,1019.85
2022-10-19T02:07:24.974Z,1019.86
2022-10-19T02:08:24.961Z,1019.82
2022-10-19T02:09:24.971Z,1019.82
2022-10-19T02:10:24.947Z,1019.81
2022-10-19T02:11:24.954Z,1019.87
2022-10-19T02:12:24.915Z,1019.84
2022-10-19T02:13:24.924Z,1019.80
2022-10-19T02:14:24.920Z,1019.82
2022-10-19T02:15:24.913Z,1019.83
2022-10-19T02:16:24.875Z,1019.80
2022-10-19T02:17:24.873Z,1019.80
2022-10-19T02:18:24.851Z,1019.82
2022-10-19T02:19:24.869Z,1019.76
2022-10-19T02:20:25.692Z,1019.78
2022-10-19T02:21:24.820Z,1019.77
2022-10-19T02:22:24.817Z,1019.75
2022-10-19T02:23:24.797Z,1019.77
2022-10-19T02:24:24.804Z,1019.78
2022-10-19T02:25:24.784Z,1019.76
2022-10-19T02:26:24.778Z,1019.76
2022-10-19T02:27:24.758Z,1019.82
2022-10-19T02:29:24.743Z,1019.80
2022-10-19T02:30:24.735Z,1019.79
2022-10-19T02:31:24.711Z,1019.76
2022-10-19T02:32:24.714Z,1019.78
2022-10-19T02:33:24.696Z,1019.81
2022-10-19T02:34:24.705Z,1019.84
2022-10-19T02:35:24.688Z,1019.83
2022-10-19T02:36:24.663Z,1019.82
2022-10-19T02:37:25.572Z,1019.85
2022-10-19T02:38:24.659Z,1019.86
2022-10-19T02:39:24.630Z,1019.86
2022-10-19T02:40:24.621Z,1019.84
2022-10-19T02:41:24.635Z,1019.86
2022-10-19T02:42:24.600Z,1019.79
2022-10-19T02:43:24.579Z,1019.83
2022-10-19T02:44:24.601Z,1019.79
2022-10-19T02:45:24.568Z,1019.83
2022-10-19T02:46:24.596Z,1019.76
2022-10-19T02:47:24.558Z,1019.77
2022-10-19T02:48:24.534Z,1019.77
2022-10-19T02:49:24.516Z,1019.76
2022-10-19T02:50:24.535Z,1019.72
2022-10-19T02:51:24.509Z,1019.72
2022-10-19T02:52:24.491Z,1019.80
2022-10-19T02:53:24.483Z,1019.81
2022-10-19T02:54:24.472Z,1019.81
2022-10-19T02:55:24.503Z,1019.85
2022-10-19T02:56:24.439Z,1019.79
2022-10-19T02:57:24.428Z,1019.83
2022-10-19T02:58:24.423Z,1019.79
2022-10-19T02:59:24.413Z,1019.79
2022-10-19T03:00:24.441Z,1019.79
2022-10-19T03:01:24.394Z,1019.79
2022-10-19T03:02:24.382Z,1019.77
2022-10-19T03:03:24.363Z,1019.78
2022-10-19T03:04:24.366Z,1019.76
2022-10-19T03:05:24.348Z,1019.77
2022-10-19T03:06:24.345Z,1019.76
2022-10-19T03:07:24.338Z,1019.75
2022-10-19T03:08:24.348Z,1019.75
2022-10-19T03:09:24.313Z,1019.75
2022-10-19T03:10:24.299Z,1019.79
2022-10-19T03:11:24.279Z,1019.76
2022-10-19T03:12:24.272Z,1019.78
2022-10-19T03:13:24.265Z,1019.84
2022-10-19T03:14:24.267Z,1019.80
2022-10-19T03:15:24.240Z,1019.84
2022-10-19T03:16:24.271Z,1019.83
2022-10-19T03:17:24.216Z,1019.84
2022-10-19T03:18:24.211Z,1019.86
2022-10-19T03:19:24.198Z,1019.88
2022-10-19T03:20:24.181Z,1019.87
2022-10-19T03:21:24.174Z,1019.87
2022-10-19T03:22:24.170Z,1019.87
2022-10-19T03:23:24.171Z,1019.92
2022-10-19T03:24:24.141Z,1019.97
2022-10-19T03:25:24.140Z,1019.95
2022-10-19T03:26:24.115Z,1019.97
2022-10-19T03:27:24.106Z,1019.92
2022-10-19T03:28:24.094Z,1019.93
2022-10-19T03:29:24.104Z,1019.96
2022-10-19T03:30:24.107Z,1019.96
2022-10-19T03:31:24.064Z,1019.96
2022-10-19T03:32:24.051Z,1019.96
2022-10-19T03:34:24.037Z,1019.95
2022-10-19T03:35:24.038Z,1019.95
2022-10-19T03:36:24.015Z,1019.96
2022-10-19T03:37:24.005Z,1019.93
2022-10-19T03:38:23.995Z,1020.03
2022-10-19T03:39:23.993Z,1020.01
2022-10-19T03:40:23.972Z,1020.05
2022-10-19T03:41:23.975Z,1020.07
2022-10-19T03:42:23.952Z,1020.03
2022-10-19T03:43:23.940Z,1020.01
2022-10-19T03:44:23.933Z,1020.04
2022-10-19T03:45:23.911Z,1020.05
2022-10-19T03:46:23.899Z,1020.11
2022-10-19T03:47:23.898Z,1020.10
2022-10-19T03:48:23.890Z,1020.12
2022-10-19T03:49:23.867Z,1020.08
2022-10-19T03:50:23.855Z,1020.14
2022-10-19T03:51:23.875Z,1020.16
2022-10-19T03:52:23.835Z,1020.17
2022-10-19T03:53:23.828Z,1020.08
2022-10-19T03:54:27.238Z,1020.08
2022-10-19T03:55:23.826Z,1020.05
2022-10-19T03:56:23.806Z,1020.09
2022-10-19T03:57:23.782Z,1020.06
2022-10-19T03:58:23.790Z,1020.06
2022-10-19T03:59:23.758Z,1020.08
2022-10-19T04:00:23.757Z,1020.07
2022-10-19T04:01:23.841Z,1020.07
2022-10-19T04:02:23.754Z,1020.14
2022-10-19T04:03:23.792Z,1020.19
2022-10-19T04:04:23.703Z,1020.17
2022-10-19T04:05:23.709Z,1020.19
2022-10-19T04:06:23.695Z,1020.15
2022-10-19T04:07:23.695Z,1020.19
2022-10-19T04:08:23.675Z,1020.17
2022-10-19T04:09:23.822Z,1020.14
2022-10-19T04:10:23.649Z,1020.18
2022-10-19T04:11:23.652Z,1020.21
2022-10-19T04:12:23.619Z,1020.23
2022-10-19T04:13:23.609Z,1020.27
2022-10-19T04:14:32.695Z,1020.25
2022-10-19T04:15:24.610Z,1020.29
2022-10-19T04:16:23.583Z,1020.29
2022-10-19T04:17:24.085Z,1020.27
2022-10-19T04:18:23.562Z,1020.23
2022-10-19T04:19:23.555Z,1020.33
2022-10-19T04:20:23.544Z,1020.37
2022-10-19T04:21:23.530Z,1020.32
2022-10-19T04:22:23.511Z,1020.40
2022-10-19T04:23:23.533Z,1020.31
2022-10-19T04:24:23.489Z,1020.33
2022-10-19T04:25:23.476Z,1020.31
2022-10-19T04:26:23.504Z,1020.29
2022-10-19T04:27:23.516Z,1020.28
2022-10-19T04:28:23.697Z,1020.30
2022-10-19T04:29:26.450Z,1020.27
2022-10-19T04:30:24.584Z,1020.29
2022-10-19T04:31:23.498Z,1020.34
2022-10-19T04:32:23.439Z,1020.31
2022-10-19T04:33:23.411Z,1020.34
2022-10-19T04:34:23.382Z,1020.29
2022-10-19T04:35:23.365Z,1020.33
2022-10-19T04:36:23.391Z,1020.29
2022-10-19T04:37:23.350Z,1020.27
2022-10-19T04:38:23.344Z,1020.29
2022-10-19T04:39:23.349Z,1020.29
2022-10-19T04:40:23.323Z,1020.31
2022-10-19T04:41:23.304Z,1020.35
2022-10-19T04:42:23.331Z,1020.38
2022-10-19T04:43:23.326Z,1020.39
2022-10-19T04:45:23.261Z,1020.42
2022-10-19T04:46:23.316Z,1020.39
2022-10-19T04:47:23.251Z,1020.39
2022-10-19T04:48:23.231Z,1020.48
2022-10-19T04:49:23.219Z,1020.45
2022-10-19T04:50:23.217Z,1020.48
2022-10-19T04:51:23.197Z,1020.46
2022-10-19T04:52:23.225Z,1020.50
2022-10-19T04:54:23.178Z,1020.51
2022-10-19T04:55:23.162Z,1020.56
2022-10-19T04:56:23.154Z,1020.53
2022-10-19T04:57:23.139Z,1020.56
2022-10-19T04:58:23.166Z,1020.56
2022-10-19T04:59:23.129Z,1020.53
2022-10-19T05:00:23.108Z,1020.55
2022-10-19T05:01:23.204Z,1020.47
2022-10-19T05:02:23.086Z,1020.52
2022-10-19T05:03:23.075Z,1020.51
2022-10-19T05:04:23.087Z,1020.49
2022-10-19T05:05:23.053Z,1020.48
2022-10-19T05:06:23.038Z,1020.50
2022-10-19T05:07:23.034Z,1020.50
2022-10-19T05:08:23.020Z,1020.51
2022-10-19T05:09:23.021Z,1020.54
2022-10-19T05:10:22.989Z,1020.54
2022-10-19T05:11:23.026Z,1020.56
2022-10-19T05:12:22.982Z,1020.57
2022-10-19T05:13:22.972Z,1020.59
2022-10-19T05:14:23.022Z,1020.59
2022-10-19T05:15:22.959Z,1020.57
2022-10-19T05:16:22.953Z,1020.60
2022-10-19T05:17:22.923Z,1020.60
2022-10-19T05:18:22.938Z,1020.62
2022-10-19T05:19:22.903Z,1020.62
2022-10-19T05:20:22.910Z,1020.62
2022-10-19T05:21:22.872Z,1020.64
2022-10-19T05:22:22.871Z,1020.67
2022-10-19T05:23:22.904Z,1020.73
2022-10-19T05:24:22.861Z,1020.67
2022-10-19T05:25:22.834Z,1020.70
2022-10-19T05:26:22.835Z,1020.70
2022-10-19T05:27:22.806Z,1020.74
2022-10-19T05:28:22.805Z,1020.75
2022-10-19T05:29:22.822Z,1020.78
2022-10-19T05:30:22.808Z,1020.80
2022-10-19T05:31:22.780Z,1020.77
2022-10-19T05:32:22.760Z,1020.74
2022-10-19T05:33:22.749Z,1020.79
2022-10-19T05:34:22.728Z,1020.74
2022-10-19T05:35:22.925Z,1020.73
2022-10-19T05:36:22.707Z,1020.77
2022-10-19T05:37:22.705Z,1020.81
2022-10-19T05:38:22.688Z,1020.73
2022-10-19T05:39:22.684Z,1020.75
2022-10-19T05:40:22.663Z,1020.77
2022-10-19T05:41:22.705Z,1020.70
2022-10-19T05:42:22.653Z,1020.73
2022-10-19T05:43:22.639Z,1020.71
2022-10-19T05:44:22.632Z,1020.73
2022-10-19T05:45:22.619Z,1020.73
2022-10-19T05:46:22.606Z,1020.68
2022-10-19T05:47:24.336Z,1020.70
2022-10-19T05:48:22.591Z,1020.75
2022-10-19T05:49:22.567Z,1020.73
2022-10-19T05:50:22.571Z,1020.79
2022-10-19T05:51:22.578Z,1020.76
2022-10-19T05:52:22.541Z,1020.81
2022-10-19T05:53:22.555Z,1020.81
2022-10-19T05:54:25.009Z,1020.81
2022-10-19T05:55:22.503Z,1020.84
2022-10-19T05:56:22.496Z,1020.84
2022-10-19T05:57:22.517Z,1020.80
2022-10-19T05:58:22.479Z,1020.85
2022-10-19T05:59:22.470Z,1020.83
2022-10-19T06:00:22.457Z,1020.80
2022-10-19T06:01:22.439Z,1020.81
2022-10-19T06:02:22.431Z,1020.86
2022-10-19T06:03:22.475Z,1020.84
2022-10-19T06:04:22.425Z,1020.81
2022-10-19T06:05:22.403Z,1020.80
2022-10-19T06:06:22.385Z,1020.78
2022-10-19T06:07:22.382Z,1020.79
2022-10-19T06:08:22.414Z,1020.78
2022-10-19T06:09:22.383Z,1020.78
2022-10-19T06:10:22.355Z,1020.78
2022-10-19T06:11:22.338Z,1020.85
2022-10-19T06:12:24.927Z,1020.84
2022-10-19T06:13:22.368Z,1020.84
2022-10-19T06:14:22.329Z,1020.86
2022-10-19T06:15:22.301Z,1020.89
2022-10-19T06:16:22.285Z,1020.93
2022-10-19T06:17:22.379Z,1020.95
2022-10-19T06:18:22.257Z,1020.96
2022-10-19T06:19:22.299Z,1020.97
2022-10-19T06:20:22.243Z,1020.97
2022-10-19T06:21:22.229Z,1020.97
2022-10-19T06:22:22.214Z,1020.97
2022-10-19T06:23:22.214Z,1021.01
2022-10-19T06:24:22.211Z,1021.07
2022-10-19T06:25:22.182Z,1021.00
2022-10-19T06:26:22.189Z,1021.01
2022-10-19T06:27:22.192Z,1021.00
2022-10-19T06:28:22.155Z,1020.98
2022-10-19T06:29:22.164Z,1021.06
2022-10-19T06:30:22.192Z,1021.04
2022-10-19T06:31:22.122Z,1021.04
2022-10-19T06:32:22.113Z,1021.01
2022-10-19T06:33:22.128Z,1021.04
2022-10-19T06:34:22.154Z,1021.01
2022-10-19T06:35:22.103Z,1021.01
2022-10-19T06:36:22.153Z,1021.06
2022-10-19T06:37:22.055Z,1021.05
2022-10-19T06:38:22.066Z,1021.02
2022-10-19T06:39:22.037Z,1021.05
2022-10-19T06:40:22.792Z,1021.03
2022-10-19T06:41:22.126Z,1021.02
2022-10-19T06:42:21.995Z,1020.95
2022-10-19T06:43:22.795Z,1020.93
2022-10-19T06:44:21.987Z,1020.94
2022-10-19T06:45:21.965Z,1020.98
2022-10-19T06:46:22.871Z,1021.01
2022-10-19T06:47:21.949Z,1021.04
2022-10-19T06:48:22.815Z,1021.03
2022-10-19T06:49:21.929Z,1021.03
2022-10-19T06:50:21.910Z,1021.06
2022-10-19T06:51:22.813Z,1021.08
2022-10-19T06:52:21.918Z,1021.07
2022-10-19T06:53:21.885Z,1021.11
2022-10-19T06:54:21.869Z,1021.12
2022-10-19T06:55:21.856Z,1021.13
2022-10-19T06:56:21.854Z,1021.15
2022-10-19T06:57:21.867Z,1021.19
2022-10-19T06:58:21.838Z,1021.18
2022-10-19T06:59:22.748Z,1021.16
2022-10-19T07:00:21.806Z,1021.16
2022-10-19T07:01:22.022Z,1021.17
2022-10-19T07:02:21.789Z,1021.17
2022-10-19T07:03:22.781Z,1021.17
2022-10-19T07:04:21.758Z,1021.18
2022-10-19T07:05:21.758Z,1021.14
2022-10-19T07:06:21.739Z,1021.17
2022-10-19T07:07:21.752Z,1021.20
2022-10-19T07:08:21.755Z,1021.22
2022-10-19T07:09:21.703Z,1021.18
2022-10-19T07:10:21.713Z,1021.19
2022-10-19T07:11:21.695Z,1021.18
2022-10-19T07:12:21.670Z,1021.20
2022-10-19T07:13:21.710Z,1021.21
2022-10-19T07:14:24.817Z,1021.25
2022-10-19T07:15:21.648Z,1021.26
2022-10-19T07:16:22.307Z,1021.20
2022-10-19T07:17:21.625Z,1021.24
2022-10-19T07:18:22.253Z,1021.24
2022-10-19T07:19:21.625Z,1021.21
2022-10-19T07:20:21.623Z,1021.23
2022-10-19T07:21:21.580Z,1021.26
2022-10-19T07:22:27.243Z,1021.28
2022-10-19T07:23:21.573Z,1021.30
2022-10-19T07:24:21.552Z,1021.36
2022-10-19T07:25:21.535Z,1021.36
2022-10-19T07:26:21.574Z,1021.34
2022-10-19T07:27:21.561Z,1021.35
2022-10-19T07:28:21.595Z,1021.34
2022-10-19T07:29:21.532Z,1021.36
2022-10-19T07:30:21.868Z,1021.38
2022-10-19T07:31:21.721Z,1021.36
2022-10-19T07:32:21.546Z,1021.38
2022-10-19T07:33:21.462Z,1021.41
2022-10-19T07:34:24.235Z,1021.39
2022-10-19T07:35:22.483Z,1021.38
2022-10-19T07:36:21.423Z,1021.44
2022-10-19T07:37:21.413Z,1021.43
2022-10-19T07:38:21.406Z,1021.41
2022-10-19T07:39:21.499Z,1021.45
2022-10-19T07:40:21.375Z,1021.48
2022-10-19T07:41:21.401Z,1021.45
2022-10-19T07:43:21.340Z,1021.53
2022-10-19T07:44:21.327Z,1021.57
2022-10-19T07:45:21.321Z,1021.53
2022-10-19T07:46:21.330Z,1021.56
2022-10-19T07:47:21.300Z,1021.54
2022-10-19T07:48:21.282Z,1021.56
2022-10-19T07:49:21.273Z,1021.53
2022-10-19T07:50:21.265Z,1021.55
2022-10-19T07:51:21.290Z,1021.52
2022-10-19T07:52:21.344Z,1021.58
2022-10-19T07:53:21.230Z,1021.51
2022-10-19T07:54:21.223Z,1021.54
2022-10-19T07:55:21.233Z,1021.51
2022-10-19T07:56:21.237Z,1021.54
2022-10-19T07:57:21.194Z,1021.51
2022-10-19T07:58:21.184Z,1021.56
2022-10-19T07:59:21.184Z,1021.56
2022-10-19T08:00:21.164Z,1021.54
2022-10-19T08:01:21.153Z,1021.58
2022-10-19T08:02:21.901Z,1021.58
2022-10-19T08:05:22.171Z,1021.59
2022-10-19T08:06:21.091Z,1021.61
2022-10-19T08:07:21.108Z,1021.56
2022-10-19T08:08:21.080Z,1021.60
2022-10-19T08:09:51.086Z,1021.61
2022-10-19T08:10:22.099Z,1021.60
2022-10-19T08:11:21.061Z,1021.59
2022-10-19T08:12:21.054Z,1021.60
2022-10-19T08:13:21.025Z,1021.66
2022-10-19T08:14:21.015Z,1021.63
2022-10-19T08:15:20.994Z,1021.70
2022-10-19T08:16:20.983Z,1021.69
2022-10-19T08:17:20.985Z,1021.78
2022-10-19T08:18:21.007Z,1021.78
2022-10-19T08:19:20.957Z,1021.73
2022-10-19T08:20:20.953Z,1021.78
2022-10-19T08:21:20.929Z,1021.79
2022-10-19T08:22:20.926Z,1021.77
2022-10-19T08:23:20.941Z,1021.78
2022-10-19T08:24:20.905Z,1021.73
2022-10-19T08:25:20.906Z,1021.76
2022-10-19T08:26:20.881Z,1021.83
2022-10-19T08:27:20.886Z,1021.81
2022-10-19T08:28:20.859Z,1021.84
2022-10-19T08:29:20.852Z,1021.87
2022-10-19T08:30:20.939Z,1021.85
2022-10-19T08:31:20.831Z,1021.84
2022-10-19T08:32:20.824Z,1021.87
2022-10-19T08:33:20.801Z,1021.84
2022-10-19T08:34:20.793Z,1021.86
2022-10-19T08:35:20.780Z,1021.89
2022-10-19T08:36:20.784Z,1021.84
2022-10-19T08:37:40.165Z,1021.82
2022-10-19T08:38:21.747Z,1021.84
2022-10-19T08:39:20.744Z,1021.90
2022-10-19T08:40:20.827Z,1021.85
2022-10-19T08:41:20.734Z,1021.84
2022-10-19T08:42:20.714Z,1021.84
2022-10-19T08:43:20.725Z,1021.87
2022-10-19T08:44:20.695Z,1021.85
2022-10-19T08:45:20.675Z,1021.88
2022-10-19T08:46:20.712Z,1021.85
2022-10-19T08:47:30.766Z,1021.83
2022-10-19T08:48:21.649Z,1021.86
2022-10-19T08:49:20.630Z,1021.91
2022-10-19T08:50:20.743Z,1021.91
2022-10-19T08:51:20.604Z,1021.86
2022-10-19T08:52:20.861Z,1021.82
2022-10-19T08:53:20.628Z,1021.86
2022-10-19T08:54:20.574Z,1021.86
2022-10-19T08:55:20.810Z,1021.88
2022-10-19T08:56:38.931Z,1021.90
2022-10-19T08:57:21.563Z,1021.89
2022-10-19T08:58:20.544Z,1021.87
2022-10-19T08:59:20.543Z,1021.84
2022-10-19T09:00:20.582Z,1021.83
2022-10-19T09:01:20.506Z,1021.84
2022-10-19T09:02:20.485Z,1021.85
2022-10-19T09:03:31.848Z,1021.87
2022-10-19T09:04:21.466Z,1021.89
2022-10-19T09:05:20.453Z,1021.90
2022-10-19T09:06:20.467Z,1021.86
2022-10-19T09:07:20.430Z,1021.90
2022-10-19T09:08:20.431Z,1022.00
2022-10-19T09:09:20.432Z,1021.98
2022-10-19T09:10:20.528Z,1021.86
2022-10-19T09:11:20.388Z,1021.86
2022-10-19T09:12:20.388Z,1021.85
2022-10-19T09:13:20.374Z,1021.87
2022-10-19T09:14:20.382Z,1021.87
2022-10-19T09:15:20.369Z,1021.88
2022-10-19T09:16:20.342Z,1021.91
2022-10-19T09:17:20.334Z,1022.00
2022-10-19T09:18:20.314Z,1021.99
2022-10-19T09:19:20.303Z,1022.02
2022-10-19T09:20:20.312Z,1021.96
2022-10-19T09:21:20.284Z,1022.00
2022-10-19T09:22:20.269Z,1022.01
2022-10-19T09:23:20.263Z,1022.01
2022-10-19T09:24:20.266Z,1022.00
2022-10-19T09:25:20.257Z,1022.03
2022-10-19T09:26:20.268Z,1022.03
2022-10-19T09:27:20.227Z,1021.99
2022-10-19T09:28:20.226Z,1022.01
2022-10-19T09:29:20.196Z,1021.98
2022-10-19T09:30:20.209Z,1022.00
2022-10-19T09:31:20.192Z,1022.03
2022-10-19T09:32:20.182Z,1022.06
2022-10-19T09:33:20.170Z,1022.08
2022-10-19T09:34:20.139Z,1022.07
2022-10-19T09:35:20.136Z,1022.08
2022-10-19T09:36:22.732Z,1022.12
2022-10-19T09:37:26.004Z,1022.15
2022-10-19T09:38:21.112Z,1022.10
2022-10-19T09:39:20.098Z,1022.15
2022-10-19T09:40:20.074Z,1022.09
2022-10-19T09:41:20.060Z,1022.08
2022-10-19T09:42:20.049Z,1022.12
2022-10-19T09:43:20.070Z,1022.09
2022-10-19T09:44:20.030Z,1022.10
2022-10-19T09:45:20.024Z,1022.14
2022-10-19T09:46:20.609Z,1022.13
2022-10-19T09:47:20.036Z,1022.17
2022-10-19T09:48:19.990Z,1022.17
2022-10-19T09:49:19.996Z,1022.18
2022-10-19T09:50:19.978Z,1022.21
2022-10-19T09:51:19.967Z,1022.20
2022-10-19T09:52:19.958Z,1022.21
2022-10-19T09:53:19.934Z,1022.23
2022-10-19T09:54:19.924Z,1022.17
2022-10-19T09:55:19.934Z,1022.21
2022-10-19T09:56:19.915Z,1022.24
2022-10-19T09:57:19.887Z,1022.23
2022-10-19T09:58:19.887Z,1022.29
2022-10-19T09:59:19.891Z,1022.25
2022-10-19T10:00:19.860Z,1022.20
2022-10-19T10:01:19.858Z,1022.22
2022-10-19T10:02:19.835Z,1022.18
2022-10-19T10:03:19.854Z,1022.22
2022-10-19T10:04:19.825Z,1022.23
2022-10-19T10:05:19.816Z,1022.21
2022-10-19T10:06:19.830Z,1022.22
2022-10-19T10:07:19.792Z,1022.22
2022-10-19T10:08:19.811Z,1022.20
2022-10-19T10:09:19.769Z,1022.25
2022-10-19T10:10:19.757Z,1022.26
2022-10-19T10:11:19.740Z,1022.25
2022-10-19T10:12:19.748Z,1022.18
2022-10-19T10:13:19.714Z,1022.18
2022-10-19T10:14:19.724Z,1022.20
2022-10-19T10:15:19.703Z,1022.20
2022-10-19T10:16:19.732Z,1022.17
2022-10-19T10:17:19.673Z,1022.20
2022-10-19T10:18:19.684Z,1022.19
2022-10-19T10:19:22.235Z,1022.14
2022-10-19T10:20:19.646Z,1022.15
2022-10-19T10:21:25.186Z,1022.11
2022-10-19T10:22:20.871Z,1022.17
2022-10-19T10:23:19.611Z,1022.15
2022-10-19T10:24:19.601Z,1022.16
2022-10-19T10:25:19.593Z,1022.17
2022-10-19T10:26:19.581Z,1022.26
2022-10-19T10:27:19.587Z,1022.24
2022-10-19T10:28:19.572Z,1022.23
2022-10-19T10:29:19.543Z,1022.19
2022-10-19T10:30:19.537Z,1022.22
2022-10-19T10:31:19.549Z,1022.24
2022-10-19T10:32:19.523Z,1022.21
2022-10-19T10:33:33.339Z,1022.23
2022-10-19T10:34:28.270Z,1022.21
2022-10-19T10:35:20.517Z,1022.30
2022-10-19T10:36:19.493Z,1022.35
2022-10-19T10:37:19.462Z,1022.30
2022-10-19T10:38:19.458Z,1022.33
2022-10-19T10:39:19.450Z,1022.28
2022-10-19T10:40:23.246Z,1022.29
2022-10-19T10:41:19.414Z,1022.25
2022-10-19T10:42:19.405Z,1022.32
2022-10-19T10:43:19.392Z,1022.33
2022-10-19T10:44:19.400Z,1022.33
2022-10-19T10:45:19.367Z,1022.32
2022-10-19T10:46:19.367Z,1022.28
2022-10-19T10:47:19.349Z,1022.32
2022-10-19T10:48:19.360Z,1022.29
2022-10-19T10:49:19.340Z,1022.30
2022-10-19T10:50:19.575Z,1022.31
2022-10-19T10:51:19.352Z,1022.31
2022-10-19T10:52:19.469Z,1022.25
2022-10-19T10:53:19.286Z,1022.28
2022-10-19T10:54:19.282Z,1022.25
2022-10-19T10:55:19.284Z,1022.21
2022-10-19T10:56:19.255Z,1022.18
2022-10-19T10:57:19.493Z,1022.19
2022-10-19T10:58:20.385Z,1022.25
2022-10-19T10:59:19.934Z,1022.23
2022-10-19T11:00:19.522Z,1022.24
2022-10-19T11:01:19.249Z,1022.23
2022-10-19T11:02:19.253Z,1022.25
2022-10-19T11:03:19.184Z,1022.25
2022-10-19T11:04:19.174Z,1022.19
2022-10-19T11:05:19.165Z,1022.26
2022-10-19T11:06:19.208Z,1022.24
2022-10-19T11:07:19.164Z,1022.24
2022-10-19T11:08:19.162Z,1022.27
2022-10-19T11:09:19.146Z,1022.28
2022-10-19T11:10:19.110Z,1022.30
2022-10-19T11:11:19.121Z,1022.24
2022-10-19T11:12:19.088Z,1022.30
2022-10-19T11:13:19.078Z,1022.30
2022-10-19T11:14:19.088Z,1022.29
2022-10-19T11:15:19.158Z,1022.30
2022-10-19T11:16:19.046Z,1022.30
2022-10-19T11:17:22.348Z,1022.33
2022-10-19T11:18:19.023Z,1022.27
2022-10-19T11:19:19.013Z,1022.27
2022-10-19T11:20:19.004Z,1022.18
2022-10-19T11:21:18.986Z,1022.21
2022-10-19T11:22:22.289Z,1022.16
2022-10-19T11:23:19.987Z,1022.19
2022-10-19T11:24:18.996Z,1022.19
2022-10-19T11:25:18.956Z,1022.14
2022-10-19T11:26:18.938Z,1022.14
2022-10-19T11:27:18.937Z,1022.15
2022-10-19T11:28:18.953Z,1022.10
2022-10-19T11:29:18.900Z,1022.17
2022-10-19T11:30:18.887Z,1022.15
2022-10-19T11:31:18.881Z,1022.13
2022-10-19T11:32:18.881Z,1022.10
2022-10-19T11:33:18.860Z,1022.06
2022-10-19T11:34:21.234Z,1022.12
2022-10-19T11:35:18.832Z,1022.09
2022-10-19T11:36:18.837Z,1022.09
2022-10-19T11:37:18.811Z,1022.08
2022-10-19T11:38:21.830Z,1022.08
2022-10-19T11:39:18.819Z,1022.07
2022-10-19T11:40:22.160Z,1022.06
2022-10-19T11:41:19.391Z,1022.01
2022-10-19T11:42:18.769Z,1022.06
2022-10-19T11:43:19.684Z,1022.02
2022-10-19T11:44:18.773Z,1022.02
2022-10-19T11:45:18.742Z,1022.02
2022-10-19T11:46:18.740Z,1022.02
2022-10-19T11:47:18.712Z,1022.00
2022-10-19T11:48:18.698Z,1021.98
2022-10-19T11:49:18.684Z,1022.02
2022-10-19T11:50:18.674Z,1021.96
2022-10-19T11:51:21.850Z,1021.99
2022-10-19T11:52:18.666Z,1021.98
2022-10-19T11:53:18.640Z,1021.97
2022-10-19T11:54:18.632Z,1021.99
2022-10-19T11:55:18.770Z,1022.02
2022-10-19T11:56:18.625Z,1021.99
2022-10-19T11:57:18.616Z,1021.94
2022-10-19T11:58:18.592Z,1021.95
2022-10-19T11:59:18.575Z,1021.95
2022-10-19T12:00:37.543Z,1021.98
2022-10-19T12:01:19.550Z,1021.98
2022-10-19T12:02:18.723Z,1021.99
2022-10-19T12:03:18.548Z,1021.96
2022-10-19T12:04:18.520Z,1021.98
2022-10-19T12:05:18.535Z,1021.99
2022-10-19T12:06:18.502Z,1021.93
2022-10-19T12:07:18.494Z,1021.96
2022-10-19T12:09:18.508Z,1021.94
2022-10-19T12:10:18.458Z,1021.94
2022-10-19T12:11:18.469Z,1022.00
2022-10-19T12:12:18.457Z,1021.97
2022-10-19T12:13:18.419Z,1022.00